createdAt,value
2023-03-01T00:00:24.023Z,-0.27
2023-03-01T00:05:25.987Z,-0.30
2023-03-01T00:10:27.930Z,-0.33
2023-03-01T00:15:29.951Z,-0.37
2023-03-01T00:20:32.024Z,-0.41
2023-03-01T00:25:33.874Z,-0.43
2023-03-01T00:30:35.871Z,-0.45
2023-03-01T00:35:38.505Z,-0.46
2023-03-01T00:40:40.390Z,-0.49
2023-03-01T00:45:42.458Z,-0.52
2023-03-01T00:50:44.426Z,-0.52
2023-03-01T00:55:46.332Z,-0.50
2023-03-01T01:00:48.169Z,-0.53
2023-03-01T01:05:51.002Z,-0.58
2023-03-01T01:10:52.771Z,-0.59
2023-03-01T01:15:54.640Z,-0.62
2023-03-01T01:20:57.803Z,-0.64
2023-03-01T01:26:14.962Z,-0.66
2023-03-01T01:31:17.195Z,-0.68
2023-03-01T01:36:19.055Z,-0.69
2023-03-01T01:41:22.597Z,-0.69
2023-03-01T01:46:34.714Z,-0.71
2023-03-01T01:51:40.420Z,-0.72
2023-03-01T01:56:47.518Z,-0.74
2023-03-01T02:01:49.369Z,-0.77
2023-03-01T02:07:19.458Z,-0.78
2023-03-01T02:12:25.609Z,-0.79
2023-03-01T02:17:27.548Z,-0.81
2023-03-01T02:22:33.100Z,-0.85
2023-03-01T02:27:44.848Z,-0.89
2023-03-01T02:32:47.396Z,-0.94
2023-03-01T02:37:49.618Z,-0.97
2023-03-01T02:42:56.874Z,-0.98
2023-03-01T02:47:59.138Z,-0.94
2023-03-01T02:53:41.242Z,-0.97
2023-03-01T02:58:52.073Z,-1.03
2023-03-01T03:03:54.920Z,-1.06
2023-03-01T03:08:56.926Z,-1.07
2023-03-01T03:13:58.943Z,-1.10
2023-03-01T03:19:06.318Z,-1.11
2023-03-01T03:24:08.148Z,-1.14
2023-03-01T03:29:09.934Z,-1.14
2023-03-01T03:34:19.314Z,-1.16
2023-03-01T03:39:24.846Z,-1.18
2023-03-01T03:44:27.967Z,-1.18
2023-03-01T03:49:29.856Z,-1.19
2023-03-01T03:54:31.669Z,-1.18
2023-03-01T03:59:33.580Z,-1.15
2023-03-01T04:04:35.845Z,-1.19
2023-03-01T04:09:37.732Z,-1.22
2023-03-01T04:14:39.748Z,-1.21
2023-03-01T04:19:41.596Z,-1.20
2023-03-01T04:24:43.421Z,-1.25
2023-03-01T04:29:45.263Z,-1.27
2023-03-01T04:34:47.339Z,-1.25
2023-03-01T04:39:49.201Z,-1.27
2023-03-01T04:44:52.352Z,-1.28
2023-03-01T04:49:54.119Z,-1.31
2023-03-01T04:54:55.849Z,-1.32
2023-03-01T05:00:00.622Z,-1.33
2023-03-01T05:05:02.542Z,-1.34
2023-03-01T05:10:04.711Z,-1.38
2023-03-01T05:15:08.074Z,-1.39
2023-03-01T05:20:11.290Z,-1.48
2023-03-01T05:25:15.076Z,-1.52
2023-03-01T05:30:18.313Z,-1.51
2023-03-01T05:35:20.286Z,-1.49
2023-03-01T05:40:25.258Z,-1.49
2023-03-01T05:45:28.404Z,-1.48
2023-03-01T05:50:33.547Z,-1.49
2023-03-01T05:55:36.531Z,-1.49
2023-03-01T06:00:38.527Z,-1.48
2023-03-01T06:05:41.830Z,-1.47
2023-03-01T06:10:43.730Z,-1.44
2023-03-01T06:15:45.577Z,-1.43
2023-03-01T06:20:56.962Z,-1.42
2023-03-01T06:25:58.911Z,-1.34
2023-03-01T06:31:00.784Z,-1.28
2023-03-01T06:36:02.813Z,-1.18
2023-03-01T06:41:04.916Z,-1.11
2023-03-01T06:46:08.067Z,-1.03
2023-03-01T06:51:10.033Z,-0.93
2023-03-01T06:56:11.927Z,-0.84
2023-03-01T07:01:13.941Z,-0.75
2023-03-01T07:06:16.052Z,-0.71
2023-03-01T07:11:17.979Z,-0.65
2023-03-01T07:16:21.478Z,-0.55
2023-03-01T07:21:23.288Z,-0.46
2023-03-01T07:26:51.791Z,-0.38
2023-03-01T07:31:53.622Z,-0.27
2023-03-01T07:36:58.468Z,-0.18
2023-03-01T07:42:00.478Z,-0.07
2023-03-01T07:47:02.443Z,0.00
2023-03-01T07:52:04.613Z,0.04
2023-03-01T07:57:06.538Z,0.08
2023-03-01T08:02:10.416Z,0.11
2023-03-01T08:07:12.312Z,0.21
2023-03-01T08:12:17.339Z,0.28
2023-03-01T08:17:19.227Z,0.39
2023-03-01T08:22:21.127Z,0.46
2023-03-01T08:27:24.029Z,0.50
2023-03-01T08:32:26.932Z,0.57
2023-03-01T08:37:32.077Z,0.69
2023-03-01T08:42:34.219Z,0.76
2023-03-01T08:47:36.259Z,0.79
2023-03-01T08:52:38.140Z,0.80
2023-03-01T08:57:39.959Z,0.85
2023-03-01T09:02:41.754Z,0.91
2023-03-01T09:07:43.868Z,0.97
2023-03-01T09:12:45.791Z,1.06
2023-03-01T09:17:47.955Z,1.06
2023-03-01T09:22:49.839Z,1.05
2023-03-01T09:27:55.565Z,0.99
2023-03-01T09:32:57.958Z,1.01
2023-03-01T09:37:59.902Z,1.04
2023-03-01T09:43:19.857Z,1.08
2023-03-01T09:48:27.125Z,1.14
2023-03-01T09:53:36.258Z,1.24
2023-03-01T09:59:05.812Z,1.37
2023-03-01T10:04:43.065Z,1.47
2023-03-01T10:09:46.595Z,1.55
2023-03-01T10:15:00.406Z,1.63
2023-03-01T10:20:20.408Z,1.73
2023-03-01T10:25:54.794Z,1.76
2023-03-01T10:30:59.976Z,1.76
2023-03-01T10:36:03.366Z,1.83
2023-03-01T10:41:08.645Z,1.91
2023-03-01T10:46:25.321Z,2.00
2023-03-01T10:51:27.321Z,2.11
2023-03-01T10:56:32.558Z,2.19
2023-03-01T11:01:37.115Z,2.23
2023-03-01T11:06:41.397Z,2.33
2023-03-01T11:11:43.344Z,2.41
2023-03-01T11:16:48.732Z,2.48
2023-03-01T11:22:02.733Z,2.54
2023-03-01T11:27:16.695Z,2.63
2023-03-01T11:32:21.073Z,2.76
2023-03-01T11:37:40.986Z,2.86
2023-03-01T11:43:11.169Z,2.92
2023-03-01T11:48:47.047Z,2.97
2023-03-01T11:53:54.990Z,3.04
2023-03-01T11:59:17.730Z,3.10
2023-03-01T12:04:22.512Z,3.17
2023-03-01T12:09:55.288Z,3.25
2023-03-01T12:15:05.990Z,3.28
2023-03-01T12:20:15.591Z,3.31
2023-03-01T12:25:40.813Z,3.35
2023-03-01T12:31:10.975Z,3.36
2023-03-01T12:36:21.726Z,3.35
2023-03-01T12:41:32.657Z,3.38
2023-03-01T12:46:56.044Z,3.37
2023-03-01T12:52:10.578Z,3.43
2023-03-01T12:57:18.128Z,3.45
2023-03-01T13:02:49.494Z,3.42
2023-03-01T13:08:42.754Z,3.39
2023-03-01T13:13:44.752Z,3.38
2023-03-01T13:18:46.841Z,3.36
2023-03-01T13:23:51.520Z,3.35
2023-03-01T13:28:58.297Z,3.35
2023-03-01T13:34:01.934Z,3.36
2023-03-01T13:39:41.328Z,3.34
2023-03-01T13:44:44.650Z,3.33
2023-03-01T13:50:05.092Z,3.33
2023-03-01T13:55:15.374Z,3.36
2023-03-01T14:00:35.629Z,3.38
2023-03-01T14:05:38.033Z,3.39
2023-03-01T14:11:08.554Z,3.41
2023-03-01T14:16:35.961Z,3.42
2023-03-01T14:21:37.953Z,3.45
2023-03-01T14:26:39.922Z,3.49
2023-03-01T14:31:52.457Z,3.50
2023-03-01T14:36:55.789Z,3.54
2023-03-01T14:42:10.637Z,3.55
2023-03-01T14:47:34.458Z,3.57
2023-03-01T14:52:40.381Z,3.57
2023-03-01T14:57:45.570Z,3.57
2023-03-01T15:02:51.151Z,3.55
2023-03-01T15:07:54.156Z,3.54
2023-03-01T15:12:56.373Z,3.53
2023-03-01T15:18:01.451Z,3.52
2023-03-01T15:23:04.458Z,3.48
2023-03-01T15:28:06.363Z,3.47
2023-03-01T15:33:30.644Z,3.44
2023-03-01T15:38:52.940Z,3.42
2023-03-01T15:43:57.039Z,3.40
2023-03-01T15:49:26.191Z,3.38
2023-03-01T15:54:29.034Z,3.34
2023-03-01T15:59:30.821Z,3.31
2023-03-01T16:04:32.699Z,3.27
2023-03-01T16:09:34.573Z,3.22
2023-03-01T16:14:36.400Z,3.17
2023-03-01T16:19:39.600Z,3.14
2023-03-01T16:24:42.273Z,3.09
2023-03-01T16:29:44.334Z,3.04
2023-03-01T16:34:48.760Z,2.95
2023-03-01T16:39:52.188Z,2.84
2023-03-01T16:44:57.425Z,2.74
2023-03-01T16:49:59.397Z,2.62
2023-03-01T16:55:01.493Z,2.51
2023-03-01T17:00:08.475Z,2.42
2023-03-01T17:05:13.348Z,2.33
2023-03-01T17:10:15.352Z,2.26
2023-03-01T17:15:17.242Z,2.19
2023-03-01T17:20:19.108Z,2.13
2023-03-01T17:25:20.993Z,2.09
2023-03-01T17:30:22.877Z,2.04
2023-03-01T17:35:24.744Z,1.99
2023-03-01T17:40:26.669Z,1.95
2023-03-01T17:45:28.497Z,1.92
2023-03-01T17:50:30.365Z,1.89
2023-03-01T17:55:32.127Z,1.85
2023-03-01T18:00:34.879Z,1.79
2023-03-01T18:05:40.239Z,1.76
2023-03-01T18:10:42.089Z,1.72
2023-03-01T18:15:43.847Z,1.70
2023-03-01T18:20:45.644Z,1.67
2023-03-01T18:25:47.386Z,1.65
2023-03-01T18:30:49.402Z,1.61
2023-03-01T18:35:51.478Z,1.60
2023-03-01T18:40:53.493Z,1.58
2023-03-01T18:45:59.468Z,1.58
2023-03-01T18:51:15.320Z,1.56
2023-03-01T18:56:17.436Z,1.53
2023-03-01T19:01:25.441Z,1.49
2023-03-01T19:06:34.506Z,1.46
2023-03-01T19:11:36.655Z,1.43
2023-03-01T19:16:38.511Z,1.42
2023-03-01T19:21:40.460Z,1.39
2023-03-01T19:26:42.699Z,1.39
2023-03-01T19:31:44.568Z,1.37
2023-03-01T19:36:48.589Z,1.33
2023-03-01T19:41:50.531Z,1.30
2023-03-01T19:46:59.904Z,1.29
2023-03-01T19:52:01.792Z,1.27
2023-03-01T19:57:03.708Z,1.24
2023-03-01T20:02:05.535Z,1.22
2023-03-01T20:07:07.435Z,1.19
2023-03-01T20:12:09.222Z,1.17
2023-03-01T20:17:11.106Z,1.16
2023-03-01T20:22:15.070Z,1.12
2023-03-01T20:27:16.910Z,1.09
2023-03-01T20:32:18.888Z,1.07
2023-03-01T20:37:22.522Z,1.07
2023-03-01T20:42:24.407Z,1.06
2023-03-01T20:47:26.324Z,1.06
2023-03-01T20:52:32.333Z,1.06
2023-03-01T20:57:38.551Z,1.07
2023-03-01T21:02:40.410Z,1.04
2023-03-01T21:07:43.025Z,1.02
2023-03-01T21:12:44.832Z,0.99
2023-03-01T21:17:46.591Z,0.98
2023-03-01T21:22:48.460Z,0.94
2023-03-01T21:27:50.325Z,0.91
2023-03-01T21:32:52.148Z,0.90
2023-03-01T21:37:54.104Z,0.87
2023-03-01T21:42:55.892Z,0.84
2023-03-01T21:47:57.748Z,0.81
2023-03-01T21:52:59.872Z,0.80
2023-03-01T21:58:01.737Z,0.80
2023-03-01T22:03:03.659Z,0.78
2023-03-01T22:08:06.019Z,0.76
2023-03-01T22:13:08.003Z,0.72
2023-03-01T22:18:11.457Z,0.68
2023-03-01T22:23:13.325Z,0.65
2023-03-01T22:28:15.180Z,0.62
2023-03-01T22:33:17.010Z,0.59
2023-03-01T22:38:18.838Z,0.57
2023-03-01T22:43:22.147Z,0.54
2023-03-01T22:48:26.096Z,0.53
2023-03-01T22:53:29.295Z,0.52
2023-03-01T22:58:31.517Z,0.50
2023-03-01T23:03:34.498Z,0.51
2023-03-01T23:08:36.819Z,0.48
2023-03-01T23:13:39.467Z,0.46
2023-03-01T23:18:41.593Z,0.45
2023-03-01T23:23:44.106Z,0.44
2023-03-01T23:28:47.415Z,0.42
2023-03-01T23:33:49.738Z,0.40
2023-03-01T23:38:57.698Z,0.40
2023-03-01T23:44:01.324Z,0.38
2023-03-01T23:49:04.752Z,0.33
2023-03-01T23:54:07.419Z,0.30
2023-03-01T23:59:17.296Z,0.28
